createdAt,value
2019-01-09T00:01:52.807Z,3.90
2019-01-09T00:06:44.169Z,3.90
2019-01-09T00:11:35.609Z,3.90
2019-01-09T00:16:26.947Z,3.90
2019-01-09T00:21:18.335Z,3.90
2019-01-09T00:26:09.722Z,3.80
2019-01-09T00:31:01.961Z,3.70
2019-01-09T00:35:52.522Z,3.60
2019-01-09T00:40:43.954Z,3.80
2019-01-09T00:45:35.354Z,3.80
2019-01-09T00:50:26.690Z,3.70
2019-01-09T00:55:18.022Z,3.60
2019-01-09T01:00:09.454Z,3.40
2019-01-09T01:05:00.886Z,3.50
2019-01-09T01:09:54.502Z,3.50
2019-01-09T01:14:45.893Z,3.50
2019-01-09T01:19:37.294Z,3.60
2019-01-09T01:24:28.698Z,3.60
2019-01-09T01:29:20.146Z,3.60
2019-01-09T01:34:11.491Z,3.50
2019-01-09T01:39:02.875Z,3.40
2019-01-09T01:43:54.245Z,3.30
2019-01-09T01:48:48.110Z,3.20
2019-01-09T01:53:39.501Z,3.20
2019-01-09T01:58:30.901Z,3.20
2019-01-09T02:03:22.244Z,3.20
2019-01-09T02:08:13.717Z,3.10
2019-01-09T02:13:05.005Z,3.00
2019-01-09T02:17:56.395Z,3.00
2019-01-09T02:22:50.694Z,3.10
2019-01-09T02:27:42.222Z,3.10
2019-01-09T02:32:35.724Z,3.10
2019-01-09T02:37:27.168Z,3.10
2019-01-09T02:42:18.579Z,3.10
2019-01-09T02:47:09.896Z,3.10
2019-01-09T02:52:01.322Z,3.10
2019-01-09T02:56:52.658Z,3.20
2019-01-09T03:01:44.001Z,3.20
2019-01-09T03:06:35.428Z,3.30
2019-01-09T03:11:26.840Z,3.20
2019-01-09T03:16:18.180Z,3.30
2019-01-09T03:21:09.536Z,3.20
2019-01-09T03:26:01.055Z,3.20
2019-01-09T03:30:52.368Z,3.20
2019-01-09T03:35:43.797Z,3.10
2019-01-09T03:40:35.193Z,3.10
2019-01-09T03:45:26.625Z,3.00
2019-01-09T03:50:18.078Z,2.80
2019-01-09T03:55:09.339Z,2.80
2019-01-09T04:00:01.063Z,2.70
2019-01-09T04:04:52.118Z,2.60
2019-01-09T04:09:43.475Z,2.70
2019-01-09T04:14:34.863Z,2.70
2019-01-09T04:19:26.303Z,2.70
2019-01-09T04:24:17.622Z,2.70
2019-01-09T04:29:09.006Z,2.70
2019-01-09T04:34:00.411Z,2.70
2019-01-09T04:38:51.868Z,2.80
2019-01-09T04:43:43.175Z,2.80
2019-01-09T04:48:34.558Z,2.80
2019-01-09T04:53:25.958Z,2.80
2019-01-09T04:58:17.347Z,2.80
2019-01-09T05:03:08.742Z,2.80
2019-01-09T05:08:00.116Z,2.80
2019-01-09T05:12:51.531Z,2.80
2019-01-09T05:17:42.887Z,2.90
2019-01-09T05:22:34.277Z,2.90
2019-01-09T05:27:25.622Z,2.90
2019-01-09T05:32:17.020Z,2.80
2019-01-09T05:37:10.464Z,2.80
2019-01-09T05:41:59.858Z,2.80
2019-01-09T05:46:51.262Z,2.80
2019-01-09T05:51:42.679Z,2.80
2019-01-09T05:56:34.042Z,2.80
2019-01-09T06:01:25.393Z,2.70
2019-01-09T06:06:16.817Z,2.80
2019-01-09T06:11:08.232Z,2.70
2019-01-09T06:15:59.604Z,2.60
2019-01-09T06:20:51.063Z,2.50
2019-01-09T06:25:42.473Z,2.40
2019-01-09T06:30:33.773Z,2.30
2019-01-09T06:35:25.206Z,2.30
2019-01-09T06:40:16.642Z,2.20
2019-01-09T06:45:08.077Z,2.30
2019-01-09T06:50:01.646Z,2.30
2019-01-09T06:54:53.266Z,2.10
2019-01-09T06:59:44.470Z,2.10
2019-01-09T07:04:35.859Z,2.00
2019-01-09T07:09:27.208Z,2.10
2019-01-09T07:14:18.665Z,2.10
2019-01-09T07:19:09.984Z,2.10
2019-01-09T07:24:01.377Z,1.90
2019-01-09T07:28:52.802Z,2.10
2019-01-09T07:33:44.226Z,2.10
2019-01-09T07:38:35.588Z,2.30
2019-01-09T07:43:26.968Z,2.30
2019-01-09T07:48:18.332Z,2.30
2019-01-09T07:53:09.771Z,2.40
2019-01-09T07:58:01.128Z,2.50
2019-01-09T08:02:52.495Z,2.50
2019-01-09T08:07:43.881Z,2.50
2019-01-09T08:12:35.374Z,2.50
2019-01-09T08:17:31.103Z,2.30
2019-01-09T08:22:22.596Z,2.30
2019-01-09T08:27:13.950Z,2.50
2019-01-09T08:32:05.373Z,2.60
2019-01-09T08:36:56.711Z,2.60
2019-01-09T08:41:48.086Z,2.50
2019-01-09T08:46:39.533Z,2.60
2019-01-09T08:51:30.863Z,2.30
2019-01-09T08:56:22.243Z,2.10
2019-01-09T09:01:13.664Z,2.20
2019-01-09T09:06:05.045Z,2.30
2019-01-09T09:10:56.412Z,2.40
2019-01-09T09:15:47.817Z,2.30
2019-01-09T09:20:39.188Z,2.40
2019-01-09T09:25:30.635Z,2.40
2019-01-09T09:30:21.966Z,2.50
2019-01-09T09:35:13.357Z,2.70
2019-01-09T09:40:04.726Z,3.00
2019-01-09T09:44:56.143Z,3.00
2019-01-09T09:49:47.474Z,3.10
2019-01-09T09:54:38.866Z,3.10
2019-01-09T09:59:30.285Z,3.30
2019-01-09T10:04:21.687Z,3.30
2019-01-09T10:09:13.060Z,3.40
2019-01-09T10:14:04.391Z,3.20
2019-01-09T10:18:55.752Z,3.30
2019-01-09T10:23:47.164Z,3.30
2019-01-09T10:28:38.577Z,3.30
2019-01-09T10:33:29.914Z,3.20
2019-01-09T10:38:21.349Z,3.30
2019-01-09T10:43:12.716Z,3.20
2019-01-09T10:48:04.135Z,3.20
2019-01-09T10:52:55.422Z,3.10
2019-01-09T10:57:49.095Z,2.90
2019-01-09T11:02:40.529Z,2.70
2019-01-09T11:07:31.957Z,3.20
2019-01-09T11:12:23.349Z,3.40
2019-01-09T11:17:14.739Z,3.40
2019-01-09T11:22:06.085Z,3.30
2019-01-09T11:26:57.514Z,3.10
2019-01-09T11:31:48.854Z,2.90
2019-01-09T11:36:40.231Z,2.80
2019-01-09T11:41:31.628Z,2.80
2019-01-09T11:46:23.223Z,3.00
2019-01-09T11:51:14.407Z,3.20
2019-01-09T11:56:05.848Z,3.40
2019-01-09T12:00:57.194Z,3.50
2019-01-09T12:05:48.557Z,3.50
2019-01-09T12:10:39.923Z,3.60
2019-01-09T12:15:35.860Z,3.50
2019-01-09T12:25:29.981Z,2.90
2019-01-09T12:30:28.180Z,3.00
2019-01-09T12:35:28.605Z,3.20
2019-01-09T12:40:27.187Z,3.40
2019-01-09T12:45:18.758Z,3.30
2019-01-09T13:00:15.383Z,3.40
2019-01-09T13:05:13.637Z,3.40
2019-01-09T13:10:07.223Z,3.40
2019-01-09T13:15:05.462Z,3.40
2019-01-09T13:20:01.432Z,3.30
2019-01-09T13:24:52.823Z,3.30
2019-01-09T13:29:46.391Z,3.30
2019-01-09T13:34:40.101Z,3.30
2019-01-09T13:39:35.965Z,3.10
2019-01-09T13:44:34.256Z,3.10
2019-01-09T13:49:32.403Z,3.10
2019-01-09T13:54:28.370Z,3.00
2019-01-09T13:59:19.794Z,2.80
2019-01-09T14:04:13.383Z,2.90
2019-01-09T14:09:07.132Z,2.70
2019-01-09T14:14:03.038Z,2.50
2019-01-09T14:19:01.229Z,2.40
2019-01-09T14:23:59.448Z,2.40
2019-01-09T14:28:59.861Z,2.50
2019-01-09T14:33:53.490Z,2.60
2019-01-09T14:38:49.854Z,2.60
2019-01-09T14:43:45.783Z,2.70
2019-01-09T14:53:42.136Z,2.70
2019-01-09T14:58:40.320Z,2.40
2019-01-09T15:03:36.358Z,2.30
2019-01-09T15:08:36.822Z,2.00
2019-01-09T15:13:32.733Z,2.00
2019-01-09T15:18:30.837Z,2.10
2019-01-09T15:28:25.032Z,2.10
2019-01-09T15:33:23.363Z,2.10
2019-01-09T15:38:21.396Z,2.00
2019-01-09T15:43:19.597Z,1.90
2019-01-09T15:48:15.576Z,1.80
2019-01-09T15:53:16.007Z,1.80
2019-01-09T15:58:14.182Z,1.80
2019-01-09T16:03:12.376Z,1.80
2019-01-09T16:08:08.298Z,1.90
2019-01-09T16:13:08.683Z,1.90
2019-01-09T16:18:02.469Z,1.90
2019-01-09T16:23:02.829Z,1.90
2019-01-09T16:27:58.772Z,1.80
2019-01-09T16:37:55.105Z,1.80
2019-01-09T16:42:51.067Z,1.70
2019-01-09T16:47:42.445Z,1.70
2019-01-09T16:52:33.929Z,1.70
2019-01-09T16:57:27.892Z,1.70
2019-01-09T17:02:25.680Z,1.70
2019-01-09T17:07:26.150Z,1.60
2019-01-09T17:12:22.143Z,1.60
2019-01-09T17:17:18.015Z,1.50
2019-01-09T17:22:16.582Z,1.60
2019-01-09T17:27:14.401Z,1.60
2019-01-09T17:32:12.596Z,1.60
2019-01-09T17:37:08.536Z,1.60
2019-01-09T17:42:06.721Z,1.70
2019-01-09T17:47:05.183Z,1.70
2019-01-09T17:52:05.457Z,1.70
2019-01-09T17:57:17.135Z,1.70
2019-01-09T18:02:15.364Z,1.70
2019-01-09T18:07:13.565Z,1.70
2019-01-09T18:12:09.507Z,1.60
2019-01-09T18:17:00.952Z,1.40
2019-01-09T18:21:53.476Z,1.50
2019-01-09T18:26:43.682Z,1.50
2019-01-09T18:31:35.077Z,1.50
2019-01-09T18:36:26.505Z,1.50
2019-01-09T18:41:17.914Z,1.50
2019-01-09T18:46:09.229Z,1.40
2019-01-09T18:51:00.697Z,1.50
2019-01-09T18:55:54.265Z,1.50
2019-01-09T19:00:45.735Z,1.50
2019-01-09T19:05:37.247Z,1.50
2019-01-09T19:10:28.555Z,1.50
2019-01-09T19:15:19.869Z,1.40
2019-01-09T19:20:11.366Z,1.40
2019-01-09T19:25:04.855Z,1.50
2019-01-09T19:29:56.383Z,1.50
2019-01-09T19:34:47.754Z,1.50
2019-01-09T19:39:39.239Z,1.40
2019-01-09T19:44:30.424Z,1.40
2019-01-09T19:49:21.906Z,1.50
2019-01-09T19:54:13.245Z,1.50
2019-01-09T19:59:04.685Z,1.40
2019-01-09T20:03:56.038Z,1.40
2019-01-09T20:08:47.475Z,1.40
2019-01-09T20:13:38.943Z,1.20
2019-01-09T20:18:30.355Z,1.20
2019-01-09T20:23:21.895Z,1.10
2019-01-09T20:28:13.080Z,1.10
2019-01-09T20:33:04.484Z,1.20
2019-01-09T20:37:56.155Z,1.20
2019-01-09T20:42:47.270Z,1.10
2019-01-09T20:47:38.894Z,1.20
2019-01-09T20:52:30.126Z,1.20
2019-01-09T20:57:21.470Z,1.30
2019-01-09T21:02:12.889Z,1.20
2019-01-09T21:07:04.271Z,1.30
2019-01-09T21:11:55.488Z,1.10
2019-01-09T21:16:47.213Z,1.20
2019-01-09T21:21:38.330Z,1.30
2019-01-09T21:26:29.742Z,1.30
2019-01-09T21:31:21.153Z,1.30
2019-01-09T21:36:12.529Z,1.40
2019-01-09T21:41:03.854Z,1.40
2019-01-09T21:45:55.293Z,1.40
2019-01-09T21:50:46.702Z,1.40
2019-01-09T21:55:38.128Z,1.30
2019-01-09T22:00:29.493Z,1.40
2019-01-09T22:05:20.952Z,1.40
2019-01-09T22:10:12.306Z,1.40
2019-01-09T22:15:03.727Z,1.40
2019-01-09T22:19:55.080Z,1.30
2019-01-09T22:24:46.439Z,1.30
2019-01-09T22:29:37.857Z,1.30
2019-01-09T22:34:29.278Z,1.20
2019-01-09T22:39:20.675Z,1.20
2019-01-09T22:44:12.075Z,1.10
2019-01-09T22:49:03.533Z,1.10
2019-01-09T22:53:54.864Z,1.00
2019-01-09T22:58:46.344Z,1.10
2019-01-09T23:03:37.709Z,1.10
2019-01-09T23:08:29.104Z,1.10
2019-01-09T23:13:20.504Z,1.00
2019-01-09T23:18:11.879Z,1.00
2019-01-09T23:23:03.246Z,1.00
2019-01-09T23:27:54.658Z,1.00
2019-01-09T23:32:46.061Z,1.00
2019-01-09T23:37:37.444Z,0.90
2019-01-09T23:42:31.301Z,1.00
2019-01-09T23:47:20.296Z,1.00
2019-01-09T23:52:11.644Z,1.00
2019-01-09T23:57:05.248Z,1.00
